sensor_id;sensor_type;location;lat;lon;timestamp;temperature;humidity
18593;DHT22;9426;54.118;17.948;2022-09-03T00:03:11;8.60;99.90
18593;DHT22;9426;54.118;17.948;2022-09-03T00:08:39;8.60;99.90
18593;DHT22;9426;54.118;17.948;2022-09-03T00:14:09;8.70;99.90
18593;DHT22;9426;54.118;17.948;2022-09-03T00:19:40;8.70;99.90
18593;DHT22;9426;54.118;17.948;2022-09-03T00:25:08;8.70;99.90
18593;DHT22;9426;54.118;17.948;2022-09-03T00:30:36;8.80;99.90
18593;DHT22;9426;54.118;17.948;2022-09-03T00:36:09;8.80;99.90
18593;DHT22;9426;54.118;17.948;2022-09-03T00:41:36;8.90;99.90
18593;DHT22;9426;54.118;17.948;2022-09-03T00:47:09;9.00;99.90
18593;DHT22;9426;54.118;17.948;2022-09-03T00:52:50;9.20;99.90
18593;DHT22;9426;54.118;17.948;2022-09-03T00:58:27;9.40;99.90
18593;DHT22;9426;54.118;17.948;2022-09-03T01:04:00;9.60;99.90
18593;DHT22;9426;54.118;17.948;2022-09-03T01:09:37;9.60;99.90
18593;DHT22;9426;54.118;17.948;2022-09-03T01:15:13;9.60;99.90
18593;DHT22;9426;54.118;17.948;2022-09-03T01:20:49;9.60;99.90
18593;DHT22;9426;54.118;17.948;2022-09-03T01:26:28;9.60;99.90
18593;DHT22;9426;54.118;17.948;2022-09-03T01:31:59;9.60;99.90
18593;DHT22;9426;54.118;17.948;2022-09-03T01:37:33;9.70;99.90
18593;DHT22;9426;54.118;17.948;2022-09-03T01:43:13;9.60;99.90
18593;DHT22;9426;54.118;17.948;2022-09-03T01:48:51;9.60;99.90
18593;DHT22;9426;54.118;17.948;2022-09-03T01:54:29;9.50;99.90
18593;DHT22;9426;54.118;17.948;2022-09-03T02:00:00;9.50;99.90
18593;DHT22;9426;54.118;17.948;2022-09-03T02:05:33;9.50;99.90
18593;DHT22;9426;54.118;17.948;2022-09-03T02:10:57;9.60;99.90
18593;DHT22;9426;54.118;17.948;2022-09-03T02:16:27;9.60;99.90
18593;DHT22;9426;54.118;17.948;2022-09-03T02:21:55;9.80;99.90
18593;DHT22;9426;54.118;17.948;2022-09-03T02:27:19;9.90;99.90
18593;DHT22;9426;54.118;17.948;2022-09-03T02:32:42;10.00;99.90
18593;DHT22;9426;54.118;17.948;2022-09-03T02:38:11;10.10;99.90
18593;DHT22;9426;54.118;17.948;2022-09-03T02:43:39;10.20;99.90
18593;DHT22;9426;54.118;17.948;2022-09-03T02:49:04;10.30;99.90
18593;DHT22;9426;54.118;17.948;2022-09-03T02:54:29;10.40;99.90
18593;DHT22;9426;54.118;17.948;2022-09-03T02:59:53;10.40;99.90
18593;DHT22;9426;54.118;17.948;2022-09-03T03:05:24;10.40;99.90
18593;DHT22;9426;54.118;17.948;2022-09-03T03:10:51;10.30;99.90
18593;DHT22;9426;54.118;17.948;2022-09-03T03:16:16;10.30;99.90
18593;DHT22;9426;54.118;17.948;2022-09-03T03:21:39;10.20;99.90
18593;DHT22;9426;54.118;17.948;2022-09-03T03:27:04;10.20;99.90
18593;DHT22;9426;54.118;17.948;2022-09-03T03:32:31;10.20;99.90
18593;DHT22;9426;54.118;17.948;2022-09-03T03:37:56;10.20;99.90
18593;DHT22;9426;54.118;17.948;2022-09-03T03:43:21;10.30;99.90
18593;DHT22;9426;54.118;17.948;2022-09-03T03:48:46;10.40;99.90
18593;DHT22;9426;54.118;17.948;2022-09-03T03:54:10;10.50;99.90
18593;DHT22;9426;54.118;17.948;2022-09-03T03:59:35;10.60;99.90
18593;DHT22;9426;54.118;17.948;2022-09-03T04:04:58;10.50;99.90
18593;DHT22;9426;54.118;17.948;2022-09-03T04:10:21;10.50;99.90
18593;DHT22;9426;54.118;17.948;2022-09-03T04:15:46;10.40;99.90
18593;DHT22;9426;54.118;17.948;2022-09-03T04:21:11;10.30;99.90
18593;DHT22;9426;54.118;17.948;2022-09-03T04:26:35;10.30;99.90
18593;DHT22;9426;54.118;17.948;2022-09-03T04:31:59;10.30;99.90
18593;DHT22;9426;54.118;17.948;2022-09-03T04:37:40;10.40;99.90
18593;DHT22;9426;54.118;17.948;2022-09-03T04:43:03;10.50;99.90
18593;DHT22;9426;54.118;17.948;2022-09-03T04:48:29;10.80;99.90
18593;DHT22;9426;54.118;17.948;2022-09-03T04:53:54;11.00;99.90
18593;DHT22;9426;54.118;17.948;2022-09-03T04:59:18;11.20;99.90
18593;DHT22;9426;54.118;17.948;2022-09-03T05:04:42;11.40;99.90
18593;DHT22;9426;54.118;17.948;2022-09-03T05:10:09;11.50;99.90
18593;DHT22;9426;54.118;17.948;2022-09-03T05:15:33;11.70;99.90
18593;DHT22;9426;54.118;17.948;2022-09-03T05:21:02;11.80;99.90
18593;DHT22;9426;54.118;17.948;2022-09-03T05:26:27;11.80;99.90
18593;DHT22;9426;54.118;17.948;2022-09-03T05:31:50;11.80;99.90
18593;DHT22;9426;54.118;17.948;2022-09-03T05:37:16;12.00;99.90
18593;DHT22;9426;54.118;17.948;2022-09-03T05:42:39;12.40;99.90
18593;DHT22;9426;54.118;17.948;2022-09-03T05:48:02;12.40;99.90
18593;DHT22;9426;54.118;17.948;2022-09-03T05:53:28;12.40;99.90
18593;DHT22;9426;54.118;17.948;2022-09-03T05:58:53;12.50;99.90
18593;DHT22;9426;54.118;17.948;2022-09-03T06:04:16;12.80;99.90
18593;DHT22;9426;54.118;17.948;2022-09-03T06:09:41;13.20;99.90
18593;DHT22;9426;54.118;17.948;2022-09-03T06:15:05;13.40;99.90
18593;DHT22;9426;54.118;17.948;2022-09-03T06:20:28;13.60;99.90
18593;DHT22;9426;54.118;17.948;2022-09-03T06:26:01;13.80;99.90
18593;DHT22;9426;54.118;17.948;2022-09-03T06:31:25;14.00;99.90
18593;DHT22;9426;54.118;17.948;2022-09-03T06:36:49;13.40;99.90
18593;DHT22;9426;54.118;17.948;2022-09-03T06:42:14;13.70;99.90
18593;DHT22;9426;54.118;17.948;2022-09-03T06:47:38;13.40;99.90
18593;DHT22;9426;54.118;17.948;2022-09-03T06:53:02;13.50;99.90
18593;DHT22;9426;54.118;17.948;2022-09-03T06:58:30;13.60;99.90
18593;DHT22;9426;54.118;17.948;2022-09-03T07:03:54;13.70;99.90
18593;DHT22;9426;54.118;17.948;2022-09-03T07:09:18;13.80;99.90
18593;DHT22;9426;54.118;17.948;2022-09-03T07:14:42;13.80;99.90
18593;DHT22;9426;54.118;17.948;2022-09-03T07:20:06;13.90;99.90
18593;DHT22;9426;54.118;17.948;2022-09-03T07:25:30;14.20;99.90
18593;DHT22;9426;54.118;17.948;2022-09-03T07:31:00;14.40;99.90
18593;DHT22;9426;54.118;17.948;2022-09-03T07:36:26;14.60;99.90
18593;DHT22;9426;54.118;17.948;2022-09-03T07:41:49;14.70;99.90
18593;DHT22;9426;54.118;17.948;2022-09-03T07:47:14;14.70;99.90
18593;DHT22;9426;54.118;17.948;2022-09-03T07:52:39;14.80;99.90
18593;DHT22;9426;54.118;17.948;2022-09-03T07:58:03;14.90;99.90
18593;DHT22;9426;54.118;17.948;2022-09-03T08:03:28;15.00;99.90
18593;DHT22;9426;54.118;17.948;2022-09-03T08:08:57;15.20;99.90
18593;DHT22;9426;54.118;17.948;2022-09-03T08:14:24;15.30;99.90
18593;DHT22;9426;54.118;17.948;2022-09-03T08:19:52;15.40;99.90
18593;DHT22;9426;54.118;17.948;2022-09-03T08:25:18;15.70;99.90
18593;DHT22;9426;54.118;17.948;2022-09-03T08:30:41;15.70;99.90
18593;DHT22;9426;54.118;17.948;2022-09-03T08:36:08;15.90;99.90
18593;DHT22;9426;54.118;17.948;2022-09-03T08:41:44;16.00;99.90
18593;DHT22;9426;54.118;17.948;2022-09-03T08:47:14;16.20;99.90
18593;DHT22;9426;54.118;17.948;2022-09-03T08:52:43;16.30;99.90
18593;DHT22;9426;54.118;17.948;2022-09-03T08:58:12;16.20;99.90
18593;DHT22;9426;54.118;17.948;2022-09-03T09:03:42;16.20;99.90
18593;DHT22;9426;54.118;17.948;2022-09-03T09:09:19;16.00;99.90
18593;DHT22;9426;54.118;17.948;2022-09-03T09:14:51;16.10;99.90
18593;DHT22;9426;54.118;17.948;2022-09-03T09:20:31;16.20;99.90
18593;DHT22;9426;54.118;17.948;2022-09-03T09:26:14;16.60;99.90
18593;DHT22;9426;54.118;17.948;2022-09-03T09:31:39;17.00;99.90
18593;DHT22;9426;54.118;17.948;2022-09-03T09:37:10;17.40;99.90
18593;DHT22;9426;54.118;17.948;2022-09-03T09:42:35;17.60;99.90
18593;DHT22;9426;54.118;17.948;2022-09-03T09:47:59;17.50;99.90
18593;DHT22;9426;54.118;17.948;2022-09-03T09:53:26;17.70;99.90
18593;DHT22;9426;54.118;17.948;2022-09-03T09:59:03;18.10;99.90
18593;DHT22;9426;54.118;17.948;2022-09-03T10:04:30;18.80;99.90
18593;DHT22;9426;54.118;17.948;2022-09-03T10:10:02;18.60;99.90
18593;DHT22;9426;54.118;17.948;2022-09-03T10:15:32;18.50;99.90
18593;DHT22;9426;54.118;17.948;2022-09-03T10:21:01;18.50;99.90
18593;DHT22;9426;54.118;17.948;2022-09-03T10:26:27;18.70;99.90
18593;DHT22;9426;54.118;17.948;2022-09-03T10:32:02;19.00;99.90
18593;DHT22;9426;54.118;17.948;2022-09-03T10:37:36;19.10;99.90
18593;DHT22;9426;54.118;17.948;2022-09-03T10:43:27;18.80;99.90
18593;DHT22;9426;54.118;17.948;2022-09-03T10:49:17;18.80;99.90
18593;DHT22;9426;54.118;17.948;2022-09-03T10:54:54;18.80;99.90
18593;DHT22;9426;54.118;17.948;2022-09-03T11:00:23;18.70;99.90
18593;DHT22;9426;54.118;17.948;2022-09-03T11:05:59;19.00;99.90
18593;DHT22;9426;54.118;17.948;2022-09-03T11:11:30;19.40;99.90
18593;DHT22;9426;54.118;17.948;2022-09-03T11:17:00;19.60;99.90
18593;DHT22;9426;54.118;17.948;2022-09-03T11:22:28;20.00;99.90
18593;DHT22;9426;54.118;17.948;2022-09-03T11:27:58;20.00;99.90
18593;DHT22;9426;54.118;17.948;2022-09-03T11:33:26;20.10;99.90
18593;DHT22;9426;54.118;17.948;2022-09-03T11:38:52;19.70;99.90
18593;DHT22;9426;54.118;17.948;2022-09-03T11:44:17;19.30;99.90
18593;DHT22;9426;54.118;17.948;2022-09-03T11:49:45;19.30;99.90
18593;DHT22;9426;54.118;17.948;2022-09-03T11:55:24;20.10;99.90
18593;DHT22;9426;54.118;17.948;2022-09-03T12:00:47;23.50;99.90
18593;DHT22;9426;54.118;17.948;2022-09-03T12:12:35;27.50;75.50
18593;DHT22;9426;54.118;17.948;2022-09-03T12:18:20;24.50;70.30
18593;DHT22;9426;54.118;17.948;2022-09-03T12:23:48;21.70;80.00
18593;DHT22;9426;54.118;17.948;2022-09-03T12:29:23;22.80;83.00
18593;DHT22;9426;54.118;17.948;2022-09-03T12:34:53;26.20;75.80
18593;DHT22;9426;54.118;17.948;2022-09-03T12:40:29;27.00;66.80
18593;DHT22;9426;54.118;17.948;2022-09-03T12:45:58;27.10;95.00
18593;DHT22;9426;54.118;17.948;2022-09-03T12:51:39;23.50;66.90
18593;DHT22;9426;54.118;17.948;2022-09-03T12:57:15;20.90;73.50
18593;DHT22;9426;54.118;17.948;2022-09-03T13:02:45;22.40;73.00
18593;DHT22;9426;54.118;17.948;2022-09-03T13:08:21;25.50;94.50
18593;DHT22;9426;54.118;17.948;2022-09-03T13:13:52;27.10;91.40
18593;DHT22;9426;54.118;17.948;2022-09-03T13:19:23;24.40;91.20
18593;DHT22;9426;54.118;17.948;2022-09-03T13:25:07;26.10;89.90
18593;DHT22;9426;54.118;17.948;2022-09-03T13:30:44;26.70;84.50
18593;DHT22;9426;54.118;17.948;2022-09-03T13:36:16;26.00;83.20
18593;DHT22;9426;54.118;17.948;2022-09-03T13:41:47;23.40;88.90
18593;DHT22;9426;54.118;17.948;2022-09-03T13:47:18;25.90;86.00
18593;DHT22;9426;54.118;17.948;2022-09-03T13:52:50;26.10;81.10
18593;DHT22;9426;54.118;17.948;2022-09-03T13:58:23;26.40;81.60
18593;DHT22;9426;54.118;17.948;2022-09-03T14:03:52;27.10;77.60
18593;DHT22;9426;54.118;17.948;2022-09-03T14:09:25;26.70;77.10
18593;DHT22;9426;54.118;17.948;2022-09-03T14:14:59;26.80;78.50
18593;DHT22;9426;54.118;17.948;2022-09-03T14:20:28;27.50;74.70
18593;DHT22;9426;54.118;17.948;2022-09-03T14:25:56;28.80;51.30
18593;DHT22;9426;54.118;17.948;2022-09-03T14:31:26;28.70;52.20
18593;DHT22;9426;54.118;17.948;2022-09-03T14:36:54;28.80;50.80
18593;DHT22;9426;54.118;17.948;2022-09-03T14:42:49;28.50;50.90
18593;DHT22;9426;54.118;17.948;2022-09-03T14:48:43;28.20;50.50
18593;DHT22;9426;54.118;17.948;2022-09-03T14:54:33;27.70;51.50
18593;DHT22;9426;54.118;17.948;2022-09-03T15:00:06;27.90;50.70
18593;DHT22;9426;54.118;17.948;2022-09-03T15:11:23;28.00;47.80
18593;DHT22;9426;54.118;17.948;2022-09-03T15:16:55;27.90;46.20
18593;DHT22;9426;54.118;17.948;2022-09-03T15:22:33;27.90;44.20
18593;DHT22;9426;54.118;17.948;2022-09-03T15:28:10;27.30;44.40
18593;DHT22;9426;54.118;17.948;2022-09-03T15:33:43;27.20;45.70
18593;DHT22;9426;54.118;17.948;2022-09-03T15:39:14;26.80;45.00
18593;DHT22;9426;54.118;17.948;2022-09-03T15:44:44;26.30;46.20
18593;DHT22;9426;54.118;17.948;2022-09-03T15:50:15;26.00;48.00
18593;DHT22;9426;54.118;17.948;2022-09-03T15:55:47;26.40;48.30
18593;DHT22;9426;54.118;17.948;2022-09-03T16:01:21;26.90;47.00
18593;DHT22;9426;54.118;17.948;2022-09-03T16:06:54;26.10;48.70
18593;DHT22;9426;54.118;17.948;2022-09-03T16:12:29;26.30;49.40
18593;DHT22;9426;54.118;17.948;2022-09-03T16:17:59;25.60;52.30
18593;DHT22;9426;54.118;17.948;2022-09-03T16:23:29;24.70;55.40
18593;DHT22;9426;54.118;17.948;2022-09-03T16:28:59;23.50;58.60
18593;DHT22;9426;54.118;17.948;2022-09-03T16:34:30;20.60;66.70
18593;DHT22;9426;54.118;17.948;2022-09-03T16:40:08;18.80;74.90
18593;DHT22;9426;54.118;17.948;2022-09-03T16:45:44;17.60;80.00
18593;DHT22;9426;54.118;17.948;2022-09-03T16:51:18;16.20;79.90
18593;DHT22;9426;54.118;17.948;2022-09-03T16:57:05;15.20;83.60
18593;DHT22;9426;54.118;17.948;2022-09-03T17:02:46;14.60;88.60
18593;DHT22;9426;54.118;17.948;2022-09-03T17:08:21;14.20;91.40
18593;DHT22;9426;54.118;17.948;2022-09-03T17:14:01;13.80;95.40
18593;DHT22;9426;54.118;17.948;2022-09-03T17:19:33;13.50;99.90
18593;DHT22;9426;54.118;17.948;2022-09-03T17:25:01;13.20;99.90
18593;DHT22;9426;54.118;17.948;2022-09-03T17:30:38;13.10;99.90
18593;DHT22;9426;54.118;17.948;2022-09-03T17:36:21;12.80;99.90
18593;DHT22;9426;54.118;17.948;2022-09-03T17:41:50;12.60;99.90
18593;DHT22;9426;54.118;17.948;2022-09-03T17:53:29;12.20;99.90
18593;DHT22;9426;54.118;17.948;2022-09-03T17:59:04;11.90;99.90
18593;DHT22;9426;54.118;17.948;2022-09-03T18:04:40;11.60;99.90
18593;DHT22;9426;54.118;17.948;2022-09-03T18:10:15;11.50;99.90
18593;DHT22;9426;54.118;17.948;2022-09-03T18:15:48;11.30;99.90
18593;DHT22;9426;54.118;17.948;2022-09-03T18:21:20;11.20;99.90
18593;DHT22;9426;54.118;17.948;2022-09-03T18:27:08;11.10;99.90
18593;DHT22;9426;54.118;17.948;2022-09-03T18:32:49;11.00;99.90
18593;DHT22;9426;54.118;17.948;2022-09-03T18:38:33;10.90;99.90
18593;DHT22;9426;54.118;17.948;2022-09-03T18:44:22;10.70;99.90
18593;DHT22;9426;54.118;17.948;2022-09-03T18:50:14;10.60;99.90
18593;DHT22;9426;54.118;17.948;2022-09-03T18:56:08;10.60;99.90
18593;DHT22;9426;54.118;17.948;2022-09-03T19:01:54;10.50;99.90
18593;DHT22;9426;54.118;17.948;2022-09-03T19:07:42;10.40;99.90
18593;DHT22;9426;54.118;17.948;2022-09-03T19:13:32;10.30;99.90
18593;DHT22;9426;54.118;17.948;2022-09-03T19:19:38;10.20;99.90
18593;DHT22;9426;54.118;17.948;2022-09-03T19:25:20;10.20;99.90
18593;DHT22;9426;54.118;17.948;2022-09-03T19:31:33;10.10;99.90
18593;DHT22;9426;54.118;17.948;2022-09-03T19:37:19;10.10;99.90
18593;DHT22;9426;54.118;17.948;2022-09-03T19:43:06;10.00;99.90
18593;DHT22;9426;54.118;17.948;2022-09-03T19:49:02;10.00;99.90
18593;DHT22;9426;54.118;17.948;2022-09-03T19:54:45;9.90;99.90
18593;DHT22;9426;54.118;17.948;2022-09-03T20:00:30;9.90;99.90
18593;DHT22;9426;54.118;17.948;2022-09-03T20:06:14;9.90;99.90
18593;DHT22;9426;54.118;17.948;2022-09-03T20:11:57;9.80;99.90
18593;DHT22;9426;54.118;17.948;2022-09-03T20:17:34;9.60;99.90
18593;DHT22;9426;54.118;17.948;2022-09-03T20:23:05;9.50;99.90
18593;DHT22;9426;54.118;17.948;2022-09-03T20:34:38;9.30;99.90
18593;DHT22;9426;54.118;17.948;2022-09-03T20:40:13;9.40;99.90
18593;DHT22;9426;54.118;17.948;2022-09-03T20:45:59;9.50;99.90
18593;DHT22;9426;54.118;17.948;2022-09-03T20:51:25;9.60;99.90
18593;DHT22;9426;54.118;17.948;2022-09-03T20:57:04;9.50;99.90
18593;DHT22;9426;54.118;17.948;2022-09-03T21:02:41;9.60;99.90
18593;DHT22;9426;54.118;17.948;2022-09-03T21:08:34;9.70;99.90
18593;DHT22;9426;54.118;17.948;2022-09-03T21:14:11;9.50;99.90
18593;DHT22;9426;54.118;17.948;2022-09-03T21:19:48;9.40;99.90
18593;DHT22;9426;54.118;17.948;2022-09-03T21:25:19;9.30;99.90
18593;DHT22;9426;54.118;17.948;2022-09-03T21:30:49;9.20;99.90
18593;DHT22;9426;54.118;17.948;2022-09-03T21:36:19;9.10;99.90
18593;DHT22;9426;54.118;17.948;2022-09-03T21:41:52;9.00;99.90
18593;DHT22;9426;54.118;17.948;2022-09-03T21:47:19;9.10;99.90
18593;DHT22;9426;54.118;17.948;2022-09-03T21:52:50;9.30;99.90
18593;DHT22;9426;54.118;17.948;2022-09-03T21:58:26;9.40;99.90
18593;DHT22;9426;54.118;17.948;2022-09-03T22:03:53;9.50;99.90
18593;DHT22;9426;54.118;17.948;2022-09-03T22:09:21;9.40;99.90
18593;DHT22;9426;54.118;17.948;2022-09-03T22:14:49;9.40;99.90
18593;DHT22;9426;54.118;17.948;2022-09-03T22:20:15;9.40;99.90
18593;DHT22;9426;54.118;17.948;2022-09-03T22:25:43;9.50;99.90
18593;DHT22;9426;54.118;17.948;2022-09-03T22:31:16;9.60;99.90
18593;DHT22;9426;54.118;17.948;2022-09-03T22:36:46;9.70;99.90
18593;DHT22;9426;54.118;17.948;2022-09-03T22:42:36;9.70;99.90
18593;DHT22;9426;54.118;17.948;2022-09-03T22:48:13;9.60;99.90
18593;DHT22;9426;54.118;17.948;2022-09-03T22:53:58;9.60;99.90
18593;DHT22;9426;54.118;17.948;2022-09-03T22:59:26;9.60;99.90
18593;DHT22;9426;54.118;17.948;2022-09-03T23:04:58;9.60;99.90
18593;DHT22;9426;54.118;17.948;2022-09-03T23:10:30;9.50;99.90
18593;DHT22;9426;54.118;17.948;2022-09-03T23:16:00;9.60;99.90
18593;DHT22;9426;54.118;17.948;2022-09-03T23:21:33;9.60;99.90
18593;DHT22;9426;54.118;17.948;2022-09-03T23:27:04;9.60;99.90
18593;DHT22;9426;54.118;17.948;2022-09-03T23:32:29;9.60;99.90
18593;DHT22;9426;54.118;17.948;2022-09-03T23:38:05;9.60;99.90
18593;DHT22;9426;54.118;17.948;2022-09-03T23:43:55;9.60;99.90
18593;DHT22;9426;54.118;17.948;2022-09-03T23:49:29;9.60;99.90
18593;DHT22;9426;54.118;17.948;2022-09-03T23:55:02;9.60;99.90
